Terminal Aerodrome Forecast
Issued by NWS

Current Version | Previous Version | Graphics & Text | Print | Product List | Glossary On
Versions: 1 2 3 4 5 6 7 8 9 10 11 12 13 14 15 16 17 18 19 20 21 22 23
000
FTUS41 KPBZ 310500
TAFHLG
TAF
KHLG 310520Z 3106/0106 VRB05KT 3SM BR SCT100
     FM310800 VRB03KT 1SM BR SCT001
      TEMPO 3108/3112 1/2SM FG OVC001
     FM311500 27012G18KT P6SM SCT060
     FM312300 VRB05KT P6SM SKC=

USA.gov is the U.S. government's official web portal to all federal, state and local government web resources and services.